Terminal Aerodrome Forecast
Issued by NWS

Home | Current Version | Previous Version | Graphics & Text | Print | Product List | Glossary On
Versions: 1 2 3 4 5 6 7 8 9 10 11 12 13 14 15 16 17 18 19 20 21 22 23 24 25 26 27 28 29 30 31 32
000
FTUS43 KGRB 270533
TAFRHI
TAF
KRHI 270533Z 2706/2806 VRB03KT 6SM BR SKC
      TEMPO 2706/2709 1/4SM FG OVC002
     FM270900 00000KT 1SM BR SCT002
      TEMPO 2709/2713 1/4SM FG VV001
     FM271400 17003KT 3SM BR SKC
     FM271600 20006KT P6SM SCT250
     FM280000 18003KT P6SM SCT150=

USA.gov is the U.S. government's official web portal to all federal, state and local government web resources and services.